Aviation Digital Data Service (ADDS)

Output produced by METARs form (0007 UTC 21 January 2019)
found at http://www.aviationweather.gov/metar/data/
 
METAR text: RPVM 210000Z 01004KT 340V040 9999 FEW020 BKN100 28/23 Q1009 NOSIG RMK A2980
Conditions at: RPVM (MACTAN-CEBU , PH) observed 0000 UTC 21 January 2019
Temperature: 28.0°C (82°F)
Dewpoint: 23.0°C (73°F) [RH = 74%]
Pressure (altimeter): 29.79 inches Hg (1009.0 mb)
Winds: from the N (10 degrees) at 5 MPH (4 knots; 2.1 m/s)
Visibility: 6 or more miles (10+ km)
Ceiling: 10000 feet AGL
Clouds: few clouds at 2000 feet AGL
broken clouds at 10000 feet AGL
Weather: no significant weather observed at this time

METAR text: RPVM 202300Z 02005KT 9999 FEW020 OVC090 27/23 Q1008 NOSIG RMK A2977
Conditions at: RPVM (MACTAN-CEBU , PH) observed 2300 UTC 20 January 2019
Temperature: 27.0°C (81°F)
Dewpoint: 23.0°C (73°F) [RH = 79%]
Pressure (altimeter): 29.76 inches Hg (1008.0 mb)
Winds: from the NNE (20 degrees) at 6 MPH (5 knots; 2.6 m/s)
Visibility: 6 or more miles (10+ km)
Ceiling: 9000 feet AGL
Clouds: few clouds at 2000 feet AGL
overcast cloud deck at 9000 feet AGL
Weather: no significant weather observed at this time

METAR text: RPVM 202200Z 36006KT 9999 FEW020 OVC090 26/23 Q1007 NOSIG RMK A2974
Conditions at: RPVM (MACTAN-CEBU , PH) observed 2200 UTC 20 January 2019
Temperature: 26.0°C (79°F)
Dewpoint: 23.0°C (73°F) [RH = 84%]
Pressure (altimeter): 29.73 inches Hg (1007.0 mb)
Winds: from the N (360 degrees) at 7 MPH (6 knots; 3.1 m/s)
Visibility: 6 or more miles (10+ km)
Ceiling: 9000 feet AGL
Clouds: few clouds at 2000 feet AGL
overcast cloud deck at 9000 feet AGL
Weather: no significant weather observed at this time

METAR text: RPVM 202100Z 02005KT 9999 FEW020 OVC090 26/23 Q1007 NOSIG RMK A2974
Conditions at: RPVM (MACTAN-CEBU , PH) observed 2100 UTC 20 January 2019
Temperature: 26.0°C (79°F)
Dewpoint: 23.0°C (73°F) [RH = 84%]
Pressure (altimeter): 29.73 inches Hg (1007.0 mb)
Winds: from the NNE (20 degrees) at 6 MPH (5 knots; 2.6 m/s)
Visibility: 6 or more miles (10+ km)
Ceiling: 9000 feet AGL
Clouds: few clouds at 2000 feet AGL
overcast cloud deck at 9000 feet AGL
Weather: no significant weather observed at this time

METAR text: RPVM 202000Z 02004KT 9999 FEW020 OVC090 26/23 Q1007 NOSIG RMK A2974
Conditions at: RPVM (MACTAN-CEBU , PH) observed 2000 UTC 20 January 2019
Temperature: 26.0°C (79°F)
Dewpoint: 23.0°C (73°F) [RH = 84%]
Pressure (altimeter): 29.73 inches Hg (1007.0 mb)
Winds: from the NNE (20 degrees) at 5 MPH (4 knots; 2.1 m/s)
Visibility: 6 or more miles (10+ km)
Ceiling: 9000 feet AGL
Clouds: few clouds at 2000 feet AGL
overcast cloud deck at 9000 feet AGL
Weather: no significant weather observed at this time

METAR text: RPVM 201900Z 01004KT 9999 FEW020 OVC090 26/23 Q1007 NOSIG RMK A2974
Conditions at: RPVM (MACTAN-CEBU , PH) observed 1900 UTC 20 January 2019
Temperature: 26.0°C (79°F)
Dewpoint: 23.0°C (73°F) [RH = 84%]
Pressure (altimeter): 29.73 inches Hg (1007.0 mb)
Winds: from the N (10 degrees) at 5 MPH (4 knots; 2.1 m/s)
Visibility: 6 or more miles (10+ km)
Ceiling: 9000 feet AGL
Clouds: few clouds at 2000 feet AGL
overcast cloud deck at 9000 feet AGL
Weather: no significant weather observed at this time

METAR text: RPVM 201800Z 01011KT 9999 FEW020 OVC090 26/23 Q1008 NOSIG RMK A2977
Conditions at: RPVM (MACTAN-CEBU , PH) observed 1800 UTC 20 January 2019
Temperature: 26.0°C (79°F)
Dewpoint: 23.0°C (73°F) [RH = 84%]
Pressure (altimeter): 29.76 inches Hg (1008.0 mb)
Winds: from the N (10 degrees) at 13 MPH (11 knots; 5.7 m/s)
Visibility: 6 or more miles (10+ km)
Ceiling: 9000 feet AGL
Clouds: few clouds at 2000 feet AGL
overcast cloud deck at 9000 feet AGL
Weather: no significant weather observed at this time

METAR text: RPVM 201700Z 02006KT 9999 FEW020 OVC090 26/23 Q1008 NOSIG RMK A2977
Conditions at: RPVM (MACTAN-CEBU , PH) observed 1700 UTC 20 January 2019
Temperature: 26.0°C (79°F)
Dewpoint: 23.0°C (73°F) [RH = 84%]
Pressure (altimeter): 29.76 inches Hg (1008.0 mb)
Winds: from the NNE (20 degrees) at 7 MPH (6 knots; 3.1 m/s)
Visibility: 6 or more miles (10+ km)
Ceiling: 9000 feet AGL
Clouds: few clouds at 2000 feet AGL
overcast cloud deck at 9000 feet AGL
Weather: no significant weather observed at this time

METAR text: RPVM 201600Z 01004KT 9999 FEW020 OVC090 26/23 Q1008 NOSIG RMK A2977
Conditions at: RPVM (MACTAN-CEBU , PH) observed 1600 UTC 20 January 2019
Temperature: 26.0°C (79°F)
Dewpoint: 23.0°C (73°F) [RH = 84%]
Pressure (altimeter): 29.76 inches Hg (1008.0 mb)
Winds: from the N (10 degrees) at 5 MPH (4 knots; 2.1 m/s)
Visibility: 6 or more miles (10+ km)
Ceiling: 9000 feet AGL
Clouds: few clouds at 2000 feet AGL
overcast cloud deck at 9000 feet AGL
Weather: no significant weather observed at this time

METAR text: RPVM 201500Z 01006KT 9999 FEW020 OVC090 26/23 Q1009 NOSIG RMK A2980
Conditions at: RPVM (MACTAN-CEBU , PH) observed 1500 UTC 20 January 2019
Temperature: 26.0°C (79°F)
Dewpoint: 23.0°C (73°F) [RH = 84%]
Pressure (altimeter): 29.79 inches Hg (1009.0 mb)
Winds: from the N (10 degrees) at 7 MPH (6 knots; 3.1 m/s)
Visibility: 6 or more miles (10+ km)
Ceiling: 9000 feet AGL
Clouds: few clouds at 2000 feet AGL
overcast cloud deck at 9000 feet AGL
Weather: no significant weather observed at this time

METAR text: RPVM 201400Z 02007KT 9999 FEW020 OVC090 26/23 Q1010 RMK A2983
Conditions at: RPVM (MACTAN-CEBU , PH) observed 1400 UTC 20 January 2019
Temperature: 26.0°C (79°F)
Dewpoint: 23.0°C (73°F) [RH = 84%]
Pressure (altimeter): 29.82 inches Hg (1010.0 mb)
Winds: from the NNE (20 degrees) at 8 MPH (7 knots; 3.6 m/s)
Visibility: 6 or more miles (10+ km)
Ceiling: 9000 feet AGL
Clouds: few clouds at 2000 feet AGL
overcast cloud deck at 9000 feet AGL
Weather: no significant weather observed at this time

METAR text: RPVM 201300Z 01007KT 9999 FEW020 OVC090 26/23 Q1010 RMK A2983
Conditions at: RPVM (MACTAN-CEBU , PH) observed 1300 UTC 20 January 2019
Temperature: 26.0°C (79°F)
Dewpoint: 23.0°C (73°F) [RH = 84%]
Pressure (altimeter): 29.82 inches Hg (1010.0 mb)
Winds: from the N (10 degrees) at 8 MPH (7 knots; 3.6 m/s)
Visibility: 6 or more miles (10+ km)
Ceiling: 9000 feet AGL
Clouds: few clouds at 2000 feet AGL
overcast cloud deck at 9000 feet AGL
Weather: no significant weather observed at this time

METAR text: RPVM 201200Z 01007KT 9999 FEW020 OVC090 26/23 Q1009 RMK A2980
Conditions at: RPVM (MACTAN-CEBU , PH) observed 1200 UTC 20 January 2019
Temperature: 26.0°C (79°F)
Dewpoint: 23.0°C (73°F) [RH = 84%]
Pressure (altimeter): 29.79 inches Hg (1009.0 mb)
Winds: from the N (10 degrees) at 8 MPH (7 knots; 3.6 m/s)
Visibility: 6 or more miles (10+ km)
Ceiling: 9000 feet AGL
Clouds: few clouds at 2000 feet AGL
overcast cloud deck at 9000 feet AGL
Weather: no significant weather observed at this time

METAR text: RPVM 201100Z 01006KT 9999 FEW020 OVC090 26/23 Q1009 RMK A2980
Conditions at: RPVM (MACTAN-CEBU , PH) observed 1100 UTC 20 January 2019
Temperature: 26.0°C (79°F)
Dewpoint: 23.0°C (73°F) [RH = 84%]
Pressure (altimeter): 29.79 inches Hg (1009.0 mb)
Winds: from the N (10 degrees) at 7 MPH (6 knots; 3.1 m/s)
Visibility: 6 or more miles (10+ km)
Ceiling: 9000 feet AGL
Clouds: few clouds at 2000 feet AGL
overcast cloud deck at 9000 feet AGL
Weather: no significant weather observed at this time

METAR text: RPVM 201000Z 01007KT 9999 FEW020 OVC090 27/22 Q1009 RMK A2989
Conditions at: RPVM (MACTAN-CEBU , PH) observed 1000 UTC 20 January 2019
Temperature: 27.0°C (81°F)
Dewpoint: 22.0°C (72°F) [RH = 74%]
Pressure (altimeter): 29.79 inches Hg (1009.0 mb)
Winds: from the N (10 degrees) at 8 MPH (7 knots; 3.6 m/s)
Visibility: 6 or more miles (10+ km)
Ceiling: 9000 feet AGL
Clouds: few clouds at 2000 feet AGL
overcast cloud deck at 9000 feet AGL
Weather: no significant weather observed at this time

METAR text: RPVM 200900Z 36007KT 9999 FEW020 OVC090 27/23 Q1008 RMK A2977
Conditions at: RPVM (MACTAN-CEBU , PH) observed 0900 UTC 20 January 2019
Temperature: 27.0°C (81°F)
Dewpoint: 23.0°C (73°F) [RH = 79%]
Pressure (altimeter): 29.76 inches Hg (1008.0 mb)
Winds: from the N (360 degrees) at 8 MPH (7 knots; 3.6 m/s)
Visibility: 6 or more miles (10+ km)
Ceiling: 9000 feet AGL
Clouds: few clouds at 2000 feet AGL
overcast cloud deck at 9000 feet AGL
Weather: no significant weather observed at this time

METAR text: RPVM 200800Z 02009KT 9999 FEW020 OVC090 27/24 Q1008 RMK A2977
Conditions at: RPVM (MACTAN-CEBU , PH) observed 0800 UTC 20 January 2019
Temperature: 27.0°C (81°F)
Dewpoint: 24.0°C (75°F) [RH = 84%]
Pressure (altimeter): 29.76 inches Hg (1008.0 mb)
Winds: from the NNE (20 degrees) at 10 MPH (9 knots; 4.6 m/s)
Visibility: 6 or more miles (10+ km)
Ceiling: 9000 feet AGL
Clouds: few clouds at 2000 feet AGL
overcast cloud deck at 9000 feet AGL
Weather: no significant weather observed at this time

METAR text: RPVM 200700Z 02008KT 9999 FEW020 OVC090 27/24 Q1008 RERA RMK A2977
Conditions at: RPVM (MACTAN-CEBU , PH) observed 0700 UTC 20 January 2019
Temperature: 27.0°C (81°F)
Dewpoint: 24.0°C (75°F) [RH = 84%]
Pressure (altimeter): 29.76 inches Hg (1008.0 mb)
Winds: from the NNE (20 degrees) at 9 MPH (8 knots; 4.1 m/s)
Visibility: 6 or more miles (10+ km)
Ceiling: 9000 feet AGL
Clouds: few clouds at 2000 feet AGL
overcast cloud deck at 9000 feet AGL
Weather: no significant weather observed at this time

METAR text: RPVM 200600Z 01009KT 9999 -RA FEW020 OVC090 27/24 Q1009 RMK A2980
Conditions at: RPVM (MACTAN-CEBU , PH) observed 0600 UTC 20 January 2019
Temperature: 27.0°C (81°F)
Dewpoint: 24.0°C (75°F) [RH = 84%]
Pressure (altimeter): 29.79 inches Hg (1009.0 mb)
Winds: from the N (10 degrees) at 10 MPH (9 knots; 4.6 m/s)
Visibility: 6 or more miles (10+ km)
Ceiling: 9000 feet AGL
Clouds: few clouds at 2000 feet AGL
overcast cloud deck at 9000 feet AGL
Weather: -RA  (light rain)

METAR text: RPVM 200500Z 01008KT 9999 FEW020 OVC090 28/25 Q1009 RERA RMK A2980
Conditions at: RPVM (MACTAN-CEBU , PH) observed 0500 UTC 20 January 2019
Temperature: 28.0°C (82°F)
Dewpoint: 25.0°C (77°F) [RH = 84%]
Pressure (altimeter): 29.79 inches Hg (1009.0 mb)
Winds: from the N (10 degrees) at 9 MPH (8 knots; 4.1 m/s)
Visibility: 6 or more miles (10+ km)
Ceiling: 9000 feet AGL
Clouds: few clouds at 2000 feet AGL
overcast cloud deck at 9000 feet AGL
Weather: no significant weather observed at this time

METAR text: RPVM 200400Z 01007KT 8000 -RA SCT020 OVC090 26/24 Q1010 RMK A2983
Conditions at: RPVM (MACTAN-CEBU , PH) observed 0400 UTC 20 January 2019
Temperature: 26.0°C (79°F)
Dewpoint: 24.0°C (75°F) [RH = 89%]
Pressure (altimeter): 29.82 inches Hg (1010.0 mb)
Winds: from the N (10 degrees) at 8 MPH (7 knots; 3.6 m/s)
Visibility: 5 miles ( 8 km)
Ceiling: 9000 feet AGL
Clouds: scattered clouds at 2000 feet AGL
overcast cloud deck at 9000 feet AGL
Weather: -RA  (light rain)

METAR text: RPVM 200300Z 02011G26KT 8000 -RA BKN020 OVC090 28/23 Q1011 RMK A2985
Conditions at: RPVM (MACTAN-CEBU , PH) observed 0300 UTC 20 January 2019
Temperature: 28.0°C (82°F)
Dewpoint: 23.0°C (73°F) [RH = 74%]
Pressure (altimeter): 29.85 inches Hg (1011.0 mb)
Winds: from the NNE (20 degrees) at 13 MPH (11 knots; 5.7 m/s)
gusting to 30 MPH (26 knots; 13.4 m/s)
Visibility: 5 miles ( 8 km)
Ceiling: 2000 feet AGL
Clouds: broken clouds at 2000 feet AGL
overcast cloud deck at 9000 feet AGL
Weather: -RA  (light rain)

METAR text: RPVM 200200Z 36009KT 9999 SCT020 OVC090 28/23 Q1011 RERA RMK A2985
Conditions at: RPVM (MACTAN-CEBU , PH) observed 0200 UTC 20 January 2019
Temperature: 28.0°C (82°F)
Dewpoint: 23.0°C (73°F) [RH = 74%]
Pressure (altimeter): 29.85 inches Hg (1011.0 mb)
Winds: from the N (360 degrees) at 10 MPH (9 knots; 4.6 m/s)
Visibility: 6 or more miles (10+ km)
Ceiling: 9000 feet AGL
Clouds: scattered clouds at 2000 feet AGL
overcast cloud deck at 9000 feet AGL
Weather: no significant weather observed at this time

METAR text: RPVM 200100Z 01010KT 9999 -RA FEW020 OVC090 28/23 Q1011 RMK A2985
Conditions at: RPVM (MACTAN-CEBU , PH) observed 0100 UTC 20 January 2019
Temperature: 28.0°C (82°F)
Dewpoint: 23.0°C (73°F) [RH = 74%]
Pressure (altimeter): 29.85 inches Hg (1011.0 mb)
Winds: from the N (10 degrees) at 12 MPH (10 knots; 5.1 m/s)
Visibility: 6 or more miles (10+ km)
Ceiling: 9000 feet AGL
Clouds: few clouds at 2000 feet AGL
overcast cloud deck at 9000 feet AGL
Weather: -RA  (light rain)

METAR text: RPVM 200000Z 36005KT 310V030 9999 FEW020 OVC090 27/23 Q1011 RERA RMK A2985
Conditions at: RPVM (MACTAN-CEBU , PH) observed 0000 UTC 20 January 2019
Temperature: 27.0°C (81°F)
Dewpoint: 23.0°C (73°F) [RH = 79%]
Pressure (altimeter): 29.85 inches Hg (1011.0 mb)
Winds: from the N (360 degrees) at 6 MPH (5 knots; 2.6 m/s)
Visibility: 6 or more miles (10+ km)
Ceiling: 9000 feet AGL
Clouds: few clouds at 2000 feet AGL
overcast cloud deck at 9000 feet AGL
Weather: no significant weather observed at this time

METAR text: RPVM 192300Z 36006KT 330V030 9999 -RA FEW020 OVC090 26/22 Q1010 RMK A2983
Conditions at: RPVM (MACTAN-CEBU , PH) observed 2300 UTC 19 January 2019
Temperature: 26.0°C (79°F)
Dewpoint: 22.0°C (72°F) [RH = 79%]
Pressure (altimeter): 29.82 inches Hg (1010.0 mb)
Winds: from the N (360 degrees) at 7 MPH (6 knots; 3.1 m/s)
Visibility: 6 or more miles (10+ km)
Ceiling: 9000 feet AGL
Clouds: few clouds at 2000 feet AGL
overcast cloud deck at 9000 feet AGL
Weather: -RA  (light rain)

METAR text: RPVM 192200Z 35004KT 9999 FEW020 OVC090 26/22 Q1010 RMK A2983
Conditions at: RPVM (MACTAN-CEBU , PH) observed 2200 UTC 19 January 2019
Temperature: 26.0°C (79°F)
Dewpoint: 22.0°C (72°F) [RH = 79%]
Pressure (altimeter): 29.82 inches Hg (1010.0 mb)
Winds: from the N (350 degrees) at 5 MPH (4 knots; 2.1 m/s)
Visibility: 6 or more miles (10+ km)
Ceiling: 9000 feet AGL
Clouds: few clouds at 2000 feet AGL
overcast cloud deck at 9000 feet AGL
Weather: no significant weather observed at this time

METAR text: RPVM 192100Z 35006KT 9999 FEW020 OVC090 26/21 Q1009 RMK A2980
Conditions at: RPVM (MACTAN-CEBU , PH) observed 2100 UTC 19 January 2019
Temperature: 26.0°C (79°F)
Dewpoint: 21.0°C (70°F) [RH = 74%]
Pressure (altimeter): 29.79 inches Hg (1009.0 mb)
Winds: from the N (350 degrees) at 7 MPH (6 knots; 3.1 m/s)
Visibility: 6 or more miles (10+ km)
Ceiling: 9000 feet AGL
Clouds: few clouds at 2000 feet AGL
overcast cloud deck at 9000 feet AGL
Weather: no significant weather observed at this time

METAR text: RPVM 192000Z 36008KT 9999 FEW020 BKN090 27/21 Q1009 RMK A2980
Conditions at: RPVM (MACTAN-CEBU , PH) observed 2000 UTC 19 January 2019
Temperature: 27.0°C (81°F)
Dewpoint: 21.0°C (70°F) [RH = 70%]
Pressure (altimeter): 29.79 inches Hg (1009.0 mb)
Winds: from the N (360 degrees) at 9 MPH (8 knots; 4.1 m/s)
Visibility: 6 or more miles (10+ km)
Ceiling: 9000 feet AGL
Clouds: few clouds at 2000 feet AGL
broken clouds at 9000 feet AGL
Weather: no significant weather observed at this time

METAR text: RPVM 191900Z 01008KT 9999 FEW020 OVC090 26/22 Q1010 RMK A2983
Conditions at: RPVM (MACTAN-CEBU , PH) observed 1900 UTC 19 January 2019
Temperature: 26.0°C (79°F)
Dewpoint: 22.0°C (72°F) [RH = 79%]
Pressure (altimeter): 29.82 inches Hg (1010.0 mb)
Winds: from the N (10 degrees) at 9 MPH (8 knots; 4.1 m/s)
Visibility: 6 or more miles (10+ km)
Ceiling: 9000 feet AGL
Clouds: few clouds at 2000 feet AGL
overcast cloud deck at 9000 feet AGL
Weather: no significant weather observed at this time

METAR text: RPVM 191800Z 02012KT 9999 SCT020 OVC090 26/22 Q1010 RMK A2983
Conditions at: RPVM (MACTAN-CEBU , PH) observed 1800 UTC 19 January 2019
Temperature: 26.0°C (79°F)
Dewpoint: 22.0°C (72°F) [RH = 79%]
Pressure (altimeter): 29.82 inches Hg (1010.0 mb)
Winds: from the NNE (20 degrees) at 14 MPH (12 knots; 6.2 m/s)
Visibility: 6 or more miles (10+ km)
Ceiling: 9000 feet AGL
Clouds: scattered clouds at 2000 feet AGL
overcast cloud deck at 9000 feet AGL
Weather: no significant weather observed at this time

METAR text: RPVM 191700Z 01010KT 9999 FEW020 OVC100 26/22 Q1010 RMK A2983
Conditions at: RPVM (MACTAN-CEBU , PH) observed 1700 UTC 19 January 2019
Temperature: 26.0°C (79°F)
Dewpoint: 22.0°C (72°F) [RH = 79%]
Pressure (altimeter): 29.82 inches Hg (1010.0 mb)
Winds: from the N (10 degrees) at 12 MPH (10 knots; 5.1 m/s)
Visibility: 6 or more miles (10+ km)
Ceiling: 10000 feet AGL
Clouds: few clouds at 2000 feet AGL
overcast cloud deck at 10000 feet AGL
Weather: no significant weather observed at this time

METAR text: RPVM 191600Z 01007KT 9999 FEW020 OVC100 26/23 Q1011 RMK A2985
Conditions at: RPVM (MACTAN-CEBU , PH) observed 1600 UTC 19 January 2019
Temperature: 26.0°C (79°F)
Dewpoint: 23.0°C (73°F) [RH = 84%]
Pressure (altimeter): 29.85 inches Hg (1011.0 mb)
Winds: from the N (10 degrees) at 8 MPH (7 knots; 3.6 m/s)
Visibility: 6 or more miles (10+ km)
Ceiling: 10000 feet AGL
Clouds: few clouds at 2000 feet AGL
overcast cloud deck at 10000 feet AGL
Weather: no significant weather observed at this time

METAR text: RPVM 191500Z 34004KT 9999 FEW020 BKN100 25/23 Q1012 RMK A2988
Conditions at: RPVM (MACTAN-CEBU , PH) observed 1500 UTC 19 January 2019
Temperature: 25.0°C (77°F)
Dewpoint: 23.0°C (73°F) [RH = 89%]
Pressure (altimeter): 29.88 inches Hg (1012.0 mb)
Winds: from the NNW (340 degrees) at 5 MPH (4 knots; 2.1 m/s)
Visibility: 6 or more miles (10+ km)
Ceiling: 10000 feet AGL
Clouds: few clouds at 2000 feet AGL
broken clouds at 10000 feet AGL
Weather: no significant weather observed at this time

METAR text: RPVM 191400Z 05002KT 9999 FEW020 BKN100 25/23 Q1012 RMK A2988
Conditions at: RPVM (MACTAN-CEBU , PH) observed 1400 UTC 19 January 2019
Temperature: 25.0°C (77°F)
Dewpoint: 23.0°C (73°F) [RH = 89%]
Pressure (altimeter): 29.88 inches Hg (1012.0 mb)
Winds: from the NE (50 degrees) at 2 MPH (2 knots; 1.0 m/s)
Visibility: 6 or more miles (10+ km)
Ceiling: 10000 feet AGL
Clouds: few clouds at 2000 feet AGL
broken clouds at 10000 feet AGL
Weather: no significant weather observed at this time

METAR text: RPVM 191300Z 06003KT 9999 FEW020 BKN100 25/23 Q1012 RESHRA RMK A2988
Conditions at: RPVM (MACTAN-CEBU , PH) observed 1300 UTC 19 January 2019
Temperature: 25.0°C (77°F)
Dewpoint: 23.0°C (73°F) [RH = 89%]
Pressure (altimeter): 29.88 inches Hg (1012.0 mb)
Winds: from the ENE (60 degrees) at 3 MPH (3 knots; 1.5 m/s)
Visibility: 6 or more miles (10+ km)
Ceiling: 10000 feet AGL
Clouds: few clouds at 2000 feet AGL
broken clouds at 10000 feet AGL
Weather: no significant weather observed at this time

Forecast for: RPVM (MACTAN-CEBU , PH)
Text: TAF RPVM 202300Z 2100/2206 01008KT 9999 FEW020 OVC090
Forecast period: 0000 UTC 21 January 2019 to 0600 UTC 22 January 2019
Forecast type: FROM: standard forecast or significant change
Winds: from the N (10 degrees) at 9 MPH (8 knots; 4.1 m/s)
Visibility: 6 or more miles 10+ km)
Ceiling: 9000 feet AGL
Clouds: few clouds at 2000 feet AGL
overcast cloud deck at 9000 feet AGL
Weather: no significant weather forecast for this period
Text: TEMPO 2100/2106 02014KT 8000 -RA SCT020 OVC090
Forecast period: 0000 to 0600 UTC 21 January 2019
Forecast type: TEMPORARY: The following changes expected for less than half the time period
Winds: from the NNE (20 degrees) at 16 MPH (14 knots; 7.2 m/s)
Visibility: 5 miles (8 km)
Ceiling: 9000 feet AGL
Clouds: scattered clouds at 2000 feet AGL
overcast cloud deck at 9000 feet AGL
Weather: -RA  (light rain)
Text: TEMPO 2106/2112 36016G26KT 6000 -RA RA SCT018 OVC080
Forecast period: 0600 to 1200 UTC 21 January 2019
Forecast type: TEMPORARY: The following changes expected for less than half the time period
Winds: from the N (360 degrees) at 18 MPH (16 knots; 8.2 m/s)
gusting to 30 MPH (26 knots; 13.4 m/s)
Visibility: 4 miles (6 km)
Ceiling: 8000 feet AGL
Clouds: scattered clouds at 1800 feet AGL
overcast cloud deck at 8000 feet AGL
Weather: -RA RA  (light rain, moderate rain)